createdAt,value
2022-12-04T00:01:48.142Z,102343.44
2022-12-04T00:06:54.006Z,102337.91
2022-12-04T00:11:58.995Z,102351.56
2022-12-04T00:17:00.882Z,102344.91
2022-12-04T00:22:02.765Z,102351.56
2022-12-04T00:27:04.727Z,102344.13
2022-12-04T00:32:06.680Z,102342.69
2022-12-04T00:37:08.632Z,102342.94
2022-12-04T00:42:10.502Z,102333.97
2022-12-04T00:47:12.309Z,102337.00
2022-12-04T00:52:14.144Z,102332.41
2022-12-04T00:57:16.223Z,102339.84
2022-12-04T01:02:18.111Z,102338.06
2022-12-04T01:07:19.964Z,102341.88
2022-12-04T01:12:21.805Z,102344.66
2022-12-04T01:17:23.689Z,102344.44
2022-12-04T01:22:25.613Z,102348.53
2022-12-04T01:27:27.513Z,102346.63
2022-12-04T01:32:29.464Z,102353.66
2022-12-04T01:37:31.822Z,102344.34
2022-12-04T01:42:33.658Z,102351.50
2022-12-04T01:47:35.522Z,102350.84
2022-12-04T01:52:37.388Z,102365.47
2022-12-04T01:57:39.249Z,102354.28
2022-12-04T02:02:46.084Z,102358.13
2022-12-04T02:07:49.693Z,102356.94
2022-12-04T02:12:56.466Z,102357.06
2022-12-04T02:18:06.271Z,102358.19
2022-12-04T02:23:26.770Z,102357.53
2022-12-04T02:28:29.015Z,102349.59
2022-12-04T02:33:46.728Z,102351.19
2022-12-04T02:38:55.630Z,102369.53
2022-12-04T02:44:15.716Z,102369.69
2022-12-04T02:49:35.474Z,102366.34
2022-12-04T02:54:45.994Z,102367.53
2022-12-04T02:59:48.140Z,102368.03
2022-12-04T03:04:50.177Z,102372.28
2022-12-04T03:09:54.964Z,102372.50
2022-12-04T03:15:00.745Z,102386.66
2022-12-04T03:20:08.662Z,102374.91
2022-12-04T03:25:10.720Z,102385.16
2022-12-04T03:30:18.108Z,102384.31
2022-12-04T03:35:27.074Z,102386.41
2022-12-04T03:40:34.655Z,102388.69
2022-12-04T03:45:44.734Z,102381.28
2022-12-04T03:51:17.347Z,102392.28
2022-12-04T03:56:23.778Z,102385.97
2022-12-04T04:01:30.798Z,102387.50
2022-12-04T04:06:35.000Z,102393.81
2022-12-04T04:11:54.568Z,102400.97
2022-12-04T04:17:00.750Z,102404.88
2022-12-04T04:22:04.515Z,102408.56
2022-12-04T04:27:06.512Z,102401.31
2022-12-04T04:32:32.826Z,102406.50
2022-12-04T04:37:44.913Z,102416.50
2022-12-04T04:42:47.283Z,102421.34
2022-12-04T04:48:02.916Z,102423.28
2022-12-04T04:53:06.749Z,102414.78
2022-12-04T04:58:14.170Z,102427.22
2022-12-04T05:03:16.193Z,102426.97
2022-12-04T05:08:18.288Z,102429.09
2022-12-04T05:13:20.621Z,102424.53
2022-12-04T05:18:22.257Z,102427.06
2022-12-04T05:23:24.296Z,102426.63
2022-12-04T05:28:26.154Z,102420.47
2022-12-04T05:33:28.157Z,102419.13
2022-12-04T05:38:33.358Z,102428.22
2022-12-04T05:43:36.003Z,102425.28
2022-12-04T05:48:38.118Z,102434.81
2022-12-04T05:53:40.060Z,102441.13
2022-12-04T05:58:41.886Z,102437.75
2022-12-04T06:03:43.876Z,102439.31
2022-12-04T06:08:45.916Z,102437.53
2022-12-04T06:13:48.420Z,102449.09
2022-12-04T06:18:54.429Z,102439.22
2022-12-04T06:23:56.762Z,102442.50
2022-12-04T06:28:59.017Z,102442.50
2022-12-04T06:34:00.876Z,102453.09
2022-12-04T06:39:02.939Z,102450.69
2022-12-04T06:44:04.987Z,102443.00
2022-12-04T06:49:07.071Z,102447.84
2022-12-04T06:54:09.659Z,102456.63
2022-12-04T06:59:12.266Z,102451.94
2022-12-04T07:04:14.135Z,102457.59
2022-12-04T07:09:16.855Z,102456.44
2022-12-04T07:14:18.729Z,102464.31
2022-12-04T07:19:20.651Z,102472.34
2022-12-04T07:24:22.598Z,102457.56
2022-12-04T07:29:24.383Z,102467.75
2022-12-04T07:34:26.397Z,102472.63
2022-12-04T07:39:28.259Z,102472.53
2022-12-04T07:44:31.760Z,102476.69
2022-12-04T07:49:33.771Z,102483.63
2022-12-04T07:54:37.726Z,102486.28
2022-12-04T07:59:40.051Z,102483.19
2022-12-04T08:04:41.951Z,102483.53
2022-12-04T08:09:44.005Z,102480.72
2022-12-04T08:14:45.886Z,102472.00
2022-12-04T08:19:47.700Z,102474.59
2022-12-04T08:24:49.679Z,102472.53
2022-12-04T08:29:51.800Z,102472.78
2022-12-04T08:34:55.947Z,102476.88
2022-12-04T08:39:58.292Z,102477.53
2022-12-04T08:45:00.554Z,102478.41
2022-12-04T08:50:02.585Z,102477.13
2022-12-04T08:55:06.127Z,102476.34
2022-12-04T09:00:08.463Z,102473.81
2022-12-04T09:05:10.509Z,102473.06
2022-12-04T09:10:14.186Z,102475.63
2022-12-04T09:15:16.107Z,102469.19
2022-12-04T09:20:18.048Z,102473.81
2022-12-04T09:25:19.801Z,102469.41
2022-12-04T09:30:21.588Z,102470.59
2022-12-04T09:35:23.493Z,102470.00
2022-12-04T09:40:37.270Z,102469.63
2022-12-04T09:45:48.865Z,102457.88
2022-12-04T09:50:50.702Z,102460.09
2022-12-04T09:55:58.357Z,102469.34
2022-12-04T10:01:01.537Z,102456.50
2022-12-04T10:06:23.352Z,102459.31
2022-12-04T10:11:32.601Z,102459.34
2022-12-04T10:16:55.390Z,102450.09
2022-12-04T10:22:03.219Z,102448.56
2022-12-04T10:27:15.313Z,102437.88
2022-12-04T10:32:20.669Z,102440.47
2022-12-04T10:37:22.641Z,102434.78
2022-12-04T10:42:29.668Z,102429.75
2022-12-04T10:47:31.649Z,102429.22
2022-12-04T10:52:33.509Z,102430.53
2022-12-04T10:57:43.756Z,102438.47
2022-12-04T11:02:45.795Z,102440.66
2022-12-04T11:07:48.211Z,102428.97
2022-12-04T11:13:01.615Z,102426.88
2022-12-04T11:18:17.513Z,102425.53
2022-12-04T11:23:19.453Z,102427.31
2022-12-04T11:28:42.878Z,102421.78
2022-12-04T11:33:52.861Z,102423.47
2022-12-04T11:39:03.641Z,102414.47
2022-12-04T11:44:06.353Z,102414.75
2022-12-04T11:49:19.472Z,102409.97
2022-12-04T11:54:45.753Z,102411.81
2022-12-04T12:00:09.486Z,102404.72
2022-12-04T12:05:36.298Z,102414.44
2022-12-04T12:11:05.669Z,102407.31
2022-12-04T12:16:23.140Z,102408.69
2022-12-04T12:21:33.929Z,102410.63
2022-12-04T12:27:14.480Z,102403.22
2022-12-04T12:32:38.221Z,102414.53
2022-12-04T12:37:53.507Z,102414.16
2022-12-04T12:43:01.566Z,102407.81
2022-12-04T12:48:17.065Z,102416.56
2022-12-04T12:53:20.439Z,102419.94
2022-12-04T12:58:42.371Z,102425.09
2022-12-04T13:04:09.316Z,102433.44
2022-12-04T13:09:22.774Z,102427.91
2022-12-04T13:14:28.834Z,102423.78
2022-12-04T13:19:38.589Z,102419.19
2022-12-04T13:25:11.918Z,102426.34
2022-12-04T13:30:20.917Z,102431.44
2022-12-04T13:35:37.889Z,102431.44
2022-12-04T13:40:41.477Z,102428.09
2022-12-04T13:45:45.534Z,102435.38
2022-12-04T13:50:47.588Z,102433.19
2022-12-04T13:55:55.815Z,102425.88
2022-12-04T14:01:21.501Z,102424.56
2022-12-04T14:06:25.297Z,102421.19
2022-12-04T14:11:27.568Z,102433.34
2022-12-04T14:16:30.824Z,102428.22
2022-12-04T14:21:43.319Z,102426.06
2022-12-04T14:32:18.097Z,102430.56
2022-12-04T14:37:26.044Z,102429.25
2022-12-04T14:42:33.021Z,102422.69
2022-12-04T14:47:56.009Z,102415.91
2022-12-04T14:53:35.103Z,102418.06
2022-12-04T14:58:37.826Z,102423.56
2022-12-04T15:03:48.068Z,102417.78
2022-12-04T15:08:57.295Z,102411.50
2022-12-04T15:14:05.243Z,102415.47
2022-12-04T15:19:18.180Z,102415.31
2022-12-04T15:24:19.767Z,102410.47
2022-12-04T15:29:23.133Z,102405.09
2022-12-04T15:34:37.386Z,102401.06
2022-12-04T15:39:49.823Z,102408.41
2022-12-04T15:45:08.644Z,102408.69
2022-12-04T15:50:13.555Z,102413.03
2022-12-04T15:55:19.452Z,102407.16
2022-12-04T16:00:33.130Z,102403.78
2022-12-04T16:05:35.475Z,102412.16
2022-12-04T16:10:37.267Z,102406.53
2022-12-04T16:15:41.053Z,102412.00
2022-12-04T16:20:43.155Z,102405.97
2022-12-04T16:25:45.028Z,102401.25
2022-12-04T16:30:50.266Z,102403.66
2022-12-04T16:35:52.205Z,102400.50
2022-12-04T16:40:56.207Z,102406.84
2022-12-04T16:46:00.202Z,102408.16
2022-12-04T16:51:02.404Z,102402.41
2022-12-04T16:56:04.653Z,102406.91
2022-12-04T17:01:07.012Z,102411.34
2022-12-04T17:06:08.678Z,102405.81
2022-12-04T17:11:12.839Z,102398.91
2022-12-04T17:16:15.299Z,102397.59
2022-12-04T17:21:17.399Z,102402.22
2022-12-04T17:26:19.464Z,102386.38
2022-12-04T17:31:25.494Z,102393.38
2022-12-04T17:36:27.732Z,102404.88
2022-12-04T17:41:29.569Z,102400.63
2022-12-04T17:46:31.677Z,102390.75
2022-12-04T17:57:42.576Z,102375.13
2022-12-04T18:02:48.703Z,102374.59
2022-12-04T18:07:55.769Z,102373.47
2022-12-04T18:13:05.362Z,102378.88
2022-12-04T18:18:10.180Z,102370.28
2022-12-04T18:23:12.051Z,102369.13
2022-12-04T18:28:15.421Z,102376.13
2022-12-04T18:33:19.101Z,102371.94
2022-12-04T18:38:22.210Z,102371.84
2022-12-04T18:43:24.518Z,102372.09
2022-12-04T18:48:26.430Z,102366.78
2022-12-04T18:53:28.320Z,102362.19
2022-12-04T18:58:32.335Z,102359.75
2022-12-04T19:03:34.617Z,102352.19
2022-12-04T19:08:41.404Z,102353.44
2022-12-04T19:13:45.235Z,102347.63
2022-12-04T19:18:47.245Z,102346.13
2022-12-04T19:23:54.485Z,102356.97
2022-12-04T19:28:56.685Z,102348.41
2022-12-04T19:33:58.748Z,102349.28
2022-12-04T19:39:02.887Z,102342.50
2022-12-04T19:44:25.941Z,102345.22
2022-12-04T19:49:26.946Z,102346.78
2022-12-04T19:54:28.776Z,102346.56
2022-12-04T19:59:36.007Z,102342.91
2022-12-04T20:04:39.142Z,102336.47
2022-12-04T20:09:46.062Z,102335.69
2022-12-04T20:14:51.401Z,102339.03
2022-12-04T20:19:53.215Z,102342.94
2022-12-04T20:24:55.070Z,102333.34
2022-12-04T20:29:57.181Z,102341.78
2022-12-04T20:34:59.186Z,102345.53
2022-12-04T20:40:01.063Z,102344.22
2022-12-04T20:45:02.934Z,102337.31
2022-12-04T20:50:06.304Z,102322.47
2022-12-04T20:55:09.127Z,102330.41
2022-12-04T21:00:11.576Z,102332.94
2022-12-04T21:17:45.230Z,102340.97
2022-12-04T21:22:47.303Z,102334.56
2022-12-04T21:27:49.169Z,102322.06
2022-12-04T21:38:11.138Z,102305.91
2022-12-04T21:43:12.927Z,102301.56
2022-12-04T21:48:14.755Z,102297.41
2022-12-04T21:53:16.683Z,102301.28
2022-12-04T21:58:19.050Z,102292.44
2022-12-04T22:03:20.956Z,102293.47
2022-12-04T22:08:22.913Z,102284.88
2022-12-04T22:13:24.756Z,102277.09
2022-12-04T22:18:26.722Z,102268.47
2022-12-04T22:23:28.557Z,102264.81
2022-12-04T22:28:30.417Z,102261.50
2022-12-04T22:33:32.244Z,102258.59
2022-12-04T22:38:42.447Z,102260.72
2022-12-04T22:43:54.353Z,102249.47
2022-12-04T22:48:56.168Z,102256.78
2022-12-04T22:53:58.387Z,102242.09
2022-12-04T22:59:00.250Z,102250.84
2022-12-04T23:04:02.793Z,102239.72
2022-12-04T23:09:10.072Z,102244.84
2022-12-04T23:14:14.601Z,102242.75
2022-12-04T23:19:17.597Z,102237.50
2022-12-04T23:24:19.423Z,102235.03
2022-12-04T23:34:43.026Z,102244.16
2022-12-04T23:39:44.914Z,102233.50
2022-12-04T23:44:46.673Z,102233.56
2022-12-04T23:49:48.534Z,102225.47
2022-12-04T23:54:50.349Z,102225.47
2022-12-04T23:59:52.472Z,102217.31
